Time;durP1;ratioP1;P1;durP2;ratioP2;P2;SDS_P1;SDS_P2;PMS_P1;PMS_P2;Temp;Humidity;BMP_temperature;BMP_pressure;BME280_temperature;BME280_humidity;BME280_pressure;Samples;Min_cycle;Max_cycle;Signal;HPM_P1;HPM_P2
2022/04/30 07:47:29;;;;;;;;;;;;;;;14.76;53.32;97356.47;4249365;27;10398;-68
2022/04/30 07:49:31;;;;;;;;;;;;;;;14.80;52.90;97357.66;4247358;27;5839;-67
2022/04/30 07:51:42;;;;;;;;;;;;;;;14.79;53.12;97356.03;4246553;27;5744;-68
2022/04/30 07:53:45;;;;;;;;;;;;;;;14.84;52.88;97353.59;4242877;27;5806;-68
2022/04/30 07:55:46;;;;;;;;;;;;;;;14.74;52.87;97356.66;4229239;28;5758;-67
2022/04/30 07:57:54;;;;;;;;;;;;;;;14.56;53.72;97348.47;4229336;28;5893;-67
2022/04/30 07:59:56;;;;;;;;;;;;;;;14.78;53.34;97354.41;4229039;28;5081;-67
2022/04/30 08:01:57;;;;;;;;;;;;;;;14.74;53.61;97355.84;4229236;28;5767;-67
2022/04/30 08:03:59;;;;;;;;;;;;;;;14.90;53.32;97357.25;4229138;28;6648;-68
2022/04/30 08:06:01;;;;;;;;;;;;;;;14.93;53.19;97356.84;4233204;27;5884;-68
2022/04/30 08:08:03;;;;;;;;;;;;;;;14.90;53.42;97347.44;4245892;27;5761;-68
2022/04/30 08:10:06;;;;;;;;;;;;;;;14.92;53.40;97349.88;4245947;27;5737;-68
2022/04/30 08:12:08;;;;;;;;;;;;;;;14.97;53.42;97353.56;4245993;27;5744;-67
2022/04/30 08:14:10;;;;;;;;;;;;;;;14.71;53.74;97358.91;4246164;27;5758;-67
2022/04/30 08:16:12;;;;;;;;;;;;;;;14.61;54.46;97353.16;4245884;27;5752;-67
2022/04/30 08:18:14;;;;;;;;;;;;;;;14.65;54.56;97354.41;4237916;27;5930;-68
2022/04/30 08:20:16;;;;;;;;;;;;;;;14.71;54.10;97349.06;4238462;27;5762;-69
2022/04/30 08:22:17;;;;;;;;;;;;;;;14.74;53.45;97350.53;4244300;27;5708;-68
2022/04/30 08:24:19;;;;;;;;;;;;;;;14.78;52.93;97357.06;4234103;27;5774;-68
2022/04/30 08:26:20;;;;;;;;;;;;;;;14.85;52.84;97344.59;4228885;28;5769;-67
2022/04/30 08:28:22;;;;;;;;;;;;;;;14.84;53.03;97341.09;4227540;27;5707;-68
2022/04/30 08:30:24;;;;;;;;;;;;;;;14.80;53.30;97339.03;4227301;28;5739;-68
2022/04/30 08:32:26;;;;;;;;;;;;;;;14.85;53.00;97340.06;4228895;28;5769;-69
2022/04/30 08:34:28;;;;;;;;;;;;;;;14.80;53.07;97339.03;4240493;27;5749;-68
2022/04/30 08:36:29;;;;;;;;;;;;;;;14.89;52.56;97345.78;4245471;27;5760;-66
2022/04/30 08:38:31;;;;;;;;;;;;;;;14.92;54.14;97350.69;4240809;27;5762;-67
2022/04/30 08:40:34;;;;;;;;;;;;;;;14.95;55.49;97349.47;4228731;28;5746;-67
2022/04/30 08:42:36;;;;;;;;;;;;;;;15.01;55.38;97341.47;4233311;27;5860;-67
2022/04/30 08:44:39;;;;;;;;;;;;;;;15.06;54.66;97344.34;4231975;27;5762;-66
2022/04/30 08:46:42;;;;;;;;;;;;;;;15.06;54.80;97346.16;4231796;27;5748;-67
2022/04/30 08:48:45;;;;;;;;;;;;;;;14.95;55.18;97338.81;4240032;27;5753;-67
2022/04/30 08:50:47;;;;;;;;;;;;;;;15.06;55.62;97340.84;4234224;28;5740;-67
2022/04/30 08:52:51;;;;;;;;;;;;;;;14.90;55.88;97339.44;4226999;28;5851;-67
2022/04/30 08:54:53;;;;;;;;;;;;;;;15.07;55.84;97335.34;4232791;28;5696;-68
2022/04/30 08:56:56;;;;;;;;;;;;;;;15.22;55.51;97335.09;4232968;28;5910;-67
2022/04/30 08:59:04;;;;;;;;;;;;;;;15.19;54.99;97340.00;4232621;28;5707;-67
2022/04/30 09:01:09;;;;;;;;;;;;;;;14.96;56.24;97338.63;4229219;28;5789;-67
2022/04/30 09:03:19;;;;;;;;;;;;;;;15.07;57.45;97337.19;4217341;28;5769;-68
2022/04/30 09:05:22;;;;;;;;;;;;;;;15.07;58.00;97337.19;4214671;28;5710;-68
2022/04/30 09:07:26;;;;;;;;;;;;;;;15.10;57.17;97332.25;4221043;28;5769;-68
2022/04/30 09:09:29;;;;;;;;;;;;;;;15.22;57.65;97331.59;4233839;28;5757;-68
2022/04/30 09:11:33;;;;;;;;;;;;;;;15.40;56.69;97335.25;4233713;28;5752;-68
2022/04/30 09:13:45;;;;;;;;;;;;;;;15.44;54.40;97332.97;4220335;27;5806;-68
2022/04/30 09:15:46;;;;;;;;;;;;;;;15.48;54.91;97328.84;4218813;27;5778;-68
2022/04/30 09:17:59;;;;;;;;;;;;;;;15.54;55.43;97336.00;4215856;28;5775;-76
2022/04/30 09:20:03;;;;;;;;;;;;;;;15.50;54.90;97334.78;4219099;27;5735;-66
2022/04/30 09:22:04;;;;;;;;;;;;;;;15.55;52.75;97329.66;4223516;27;5861;-72
2022/04/30 09:24:07;;;;;;;;;;;;;;;15.59;52.50;97328.19;4223998;27;5841;-72
2022/04/30 09:26:09;;;;;;;;;;;;;;;15.51;51.82;97325.75;4222168;27;5865;-71
2022/04/30 09:28:11;;;;;;;;;;;;;;;15.59;51.46;97328.19;4222549;27;5845;-72
2022/04/30 09:30:31;;;;;;;;;;;;;;;15.67;51.48;97322.66;4231615;27;5764;-70
2022/04/30 09:32:32;;;;;;;;;;;;;;;15.71;51.22;97321.19;4230862;28;5775;-71
2022/04/30 09:39:20;;;;;;;;;;;;;;;15.98;50.79;97318.38;4216079;28;5863;-70
2022/04/30 09:41:23;;;;;;;;;;;;;;;15.88;51.88;97318.84;4217690;28;5708;-70
2022/04/30 09:43:33;;;;;;;;;;;;;;;15.80;51.35;97316.44;4233204;27;5785;-70
2022/04/30 09:45:38;;;;;;;;;;;;;;;15.93;49.93;97312.88;4217331;28;5809;-70
2022/04/30 09:47:41;;;;;;;;;;;;;;;15.78;50.17;97317.69;4212847;27;5726;-70
2022/04/30 09:54:26;;;;;;;;;;;;;;;16.19;49.23;97299.34;4227467;28;5766;-70
2022/04/30 09:56:34;;;;;;;;;;;;;;;16.29;49.43;97302.34;4232810;28;5745;-70
2022/04/30 09:58:39;;;;;;;;;;;;;;;16.36;49.09;97296.16;4230477;28;5754;-70
2022/04/30 10:00:42;;;;;;;;;;;;;;;16.40;49.53;97300.84;4231956;28;5841;-70
2022/04/30 10:02:45;;;;;;;;;;;;;;;16.43;49.53;97296.94;4230952;28;5708;-71
2022/04/30 10:04:47;;;;;;;;;;;;;;;16.36;48.75;97291.66;4227680;28;5785;-71
2022/04/30 10:06:51;;;;;;;;;;;;;;;16.32;48.38;97292.31;4215273;28;5770;-71
2022/04/30 10:08:53;;;;;;;;;;;;;;;16.45;49.87;97294.88;4214084;28;5737;-71
2022/04/30 10:11:07;;;;;;;;;;;;;;;16.56;49.13;97288.81;4215319;28;6171;-70
2022/04/30 10:13:36;;;;;;;;;;;;;;;16.64;49.47;97291.19;4214218;28;5735;-70
2022/04/30 10:15:46;;;;;;;;;;;;;;;16.65;49.33;97282.19;4217569;28;6477;-70
2022/04/30 10:17:53;;;;;;;;;;;;;;;16.62;49.30;97287.94;4232636;28;5764;-70
2022/04/30 10:20:00;;;;;;;;;;;;;;;16.72;49.42;97290.13;4220267;28;6561;-70
2022/04/30 10:22:15;;;;;;;;;;;;;;;16.78;48.68;97284.75;4219485;28;5865;-70
2022/04/30 10:24:18;;;;;;;;;;;;;;;16.73;46.67;97281.91;4225695;28;5811;-70
2022/04/30 10:26:19;;;;;;;;;;;;;;;16.64;48.00;97274.34;4215443;28;5888;-69
2022/04/30 10:28:23;;;;;;;;;;;;;;;16.73;48.49;97273.91;4226572;28;5656;-70
2022/04/30 10:30:27;;;;;;;;;;;;;;;16.79;49.36;97266.88;4217737;27;5484;-70
2022/04/30 10:32:34;;;;;;;;;;;;;;;16.91;49.70;97272.28;4215019;28;5806;-70
2022/04/30 10:34:36;;;;;;;;;;;;;;;16.77;49.00;97269.75;4215344;28;5758;-70
2022/04/30 10:36:39;;;;;;;;;;;;;;;16.20;51.34;97262.84;4231247;28;5745;-70
2022/04/30 10:38:44;;;;;;;;;;;;;;;16.37;50.07;97268.44;4231729;28;5816;-70
2022/04/30 10:40:51;;;;;;;;;;;;;;;15.99;52.08;97267.50;4232196;28;5713;-69
2022/04/30 10:42:55;;;;;;;;;;;;;;;16.25;51.47;97266.50;4231809;27;5785;-70
2022/04/30 10:44:58;;;;;;;;;;;;;;;16.42;50.90;97260.59;4230644;28;5700;-70
2022/04/30 10:47:12;;;;;;;;;;;;;;;16.34;50.16;97258.22;4231771;28;5756;-71
2022/04/30 10:49:14;;;;;;;;;;;;;;;16.01;51.30;97253.94;4247715;27;5817;-70
2022/04/30 10:51:34;;;;;;;;;;;;;;;16.10;50.42;97247.31;4248030;27;5736;-69
2022/04/30 10:53:42;;;;;;;;;;;;;;;16.34;49.75;97253.69;4240197;27;5772;-70
2022/04/30 10:55:43;;;;;;;;;;;;;;;16.38;49.62;97244.22;4219798;28;5844;-69
2022/04/30 10:57:46;;;;;;;;;;;;;;;16.43;50.24;97248.91;4227392;28;7721;-70
2022/04/30 10:59:58;;;;;;;;;;;;;;;16.50;49.00;97241.66;4231091;28;5761;-71
2022/04/30 11:02:01;;;;;;;;;;;;;;;16.52;48.31;97245.72;4231530;28;5110;-70
2022/04/30 11:04:05;;;;;;;;;;;;;;;16.50;48.93;97237.13;4231645;27;5741;-70
2022/04/30 11:06:09;;;;;;;;;;;;;;;16.43;49.00;97228.38;4231583;27;5760;-70
2022/04/30 11:08:11;;;;;;;;;;;;;;;16.36;48.20;97227.59;4230073;28;5683;-70
2022/04/30 11:10:13;;;;;;;;;;;;;;;16.25;47.52;97223.81;4231660;28;5752;-70
2022/04/30 11:12:15;;;;;;;;;;;;;;;16.25;48.25;97217.66;4231282;27;5744;-70
2022/04/30 11:14:23;;;;;;;;;;;;;;;16.42;47.59;97226.75;4231715;28;6465;-70
2022/04/30 11:16:35;;;;;;;;;;;;;;;16.11;47.69;97213.47;4230172;28;5612;-70
2022/04/30 11:18:37;;;;;;;;;;;;;;;16.17;48.83;97220.59;4231817;28;5749;-69
2022/04/30 11:20:38;;;;;;;;;;;;;;;16.07;48.76;97221.06;4231443;28;6445;-69
2022/04/30 11:22:41;;;;;;;;;;;;;;;16.26;48.85;97214.75;4223908;27;6400;-70
2022/04/30 11:24:43;;;;;;;;;;;;;;;16.30;49.02;97212.47;4230303;28;5724;-70
2022/04/30 11:26:44;;;;;;;;;;;;;;;16.51;48.64;97203.25;4230315;28;5703;-70
2022/04/30 11:28:49;;;;;;;;;;;;;;;16.64;48.37;97200.44;4230396;27;5840;-70
2022/04/30 11:30:58;;;;;;;;;;;;;;;16.71;47.51;97203.88;4231641;28;5753;-70
2022/04/30 11:33:00;;;;;;;;;;;;;;;16.71;46.50;97195.06;4232071;28;5658;-71
2022/04/30 11:35:03;;;;;;;;;;;;;;;16.36;46.12;97200.13;4230182;28;5724;-70
2022/04/30 11:37:05;;;;;;;;;;;;;;;16.42;47.39;97192.06;4217762;28;5885;-70
2022/04/30 11:39:07;;;;;;;;;;;;;;;16.56;46.64;97188.22;4219741;28;5120;-70
2022/04/30 11:41:10;;;;;;;;;;;;;;;16.58;46.80;97185.31;4219882;28;5741;-70
2022/04/30 11:43:12;;;;;;;;;;;;;;;16.65;46.55;97175.41;4227085;28;5769;-71
2022/04/30 11:45:31;;;;;;;;;;;;;;;16.90;46.26;97177.19;4214639;28;5766;-70
2022/04/30 11:47:33;;;;;;;;;;;;;;;17.09;46.01;97176.13;4222573;27;5109;-70
2022/04/30 11:49:36;;;;;;;;;;;;;;;17.05;45.48;97170.41;4225933;27;5777;-70
2022/04/30 11:51:56;;;;;;;;;;;;;;;17.18;46.27;97169.44;4213203;28;5718;-70
2022/04/30 11:53:57;;;;;;;;;;;;;;;17.22;46.49;97165.28;4223893;28;5100;-71
2022/04/30 11:56:01;;;;;;;;;;;;;;;17.35;46.74;97161.63;4220547;28;5766;-70
2022/04/30 11:58:04;;;;;;;;;;;;;;;17.42;46.99;97157.78;4217278;27;5854;-70
2022/04/30 12:00:23;;;;;;;;;;;;;;;17.50;46.86;97162.00;4242385;27;6459;-70
2022/04/30 12:02:24;;;;;;;;;;;;;;;17.61;46.24;97155.06;4230934;27;5748;-69
2022/04/30 12:04:31;;;;;;;;;;;;;;;17.62;45.45;97154.03;4231063;27;5104;-69
2022/04/30 12:06:32;;;;;;;;;;;;;;;17.62;44.92;97148.66;4222590;27;5764;-69
2022/04/30 12:08:34;;;;;;;;;;;;;;;17.58;45.43;97144.84;4221509;27;5765;-69
2022/04/30 12:10:37;;;;;;;;;;;;;;;17.63;44.91;97142.28;4223571;27;5800;-71
2022/04/30 12:12:39;;;;;;;;;;;;;;;17.62;46.07;97149.47;4223388;27;5956;-71
2022/04/30 12:14:51;;;;;;;;;;;;;;;17.80;46.43;97145.97;4229131;27;6575;-71
2022/04/30 12:16:54;;;;;;;;;;;;;;;17.92;46.59;97144.13;4220079;27;5726;-71
2022/04/30 12:26:19;;;;;;;;;;;;;;;17.74;45.58;97120.13;4197060;28;5752;-70
2022/04/30 12:28:21;;;;;;;;;;;;;;;17.70;44.42;97122.47;4202156;28;5849;-70
2022/04/30 12:30:23;;;;;;;;;;;;;;;17.74;45.20;97125.47;4194258;28;5746;-70
2022/04/30 12:32:25;;;;;;;;;;;;;;;17.84;44.99;97124.91;4194953;28;5731;-71
2022/04/30 12:34:30;;;;;;;;;;;;;;;17.84;43.29;97120.38;4183634;28;6529;-70
2022/04/30 12:36:32;;;;;;;;;;;;;;;17.94;42.30;97125.97;4188947;28;5118;-70
2022/04/30 12:38:34;;;;;;;;;;;;;;;17.93;43.29;97121.66;4190478;28;5777;-70
2022/04/30 12:40:43;;;;;;;;;;;;;;;17.99;43.57;97118.06;4193360;28;5777;-71
2022/04/30 12:42:45;;;;;;;;;;;;;;;18.12;41.85;97111.69;4181480;28;5773;-71
2022/04/30 12:44:47;;;;;;;;;;;;;;;18.15;41.24;97115.75;4173061;28;5892;-71
2022/04/30 12:46:49;;;;;;;;;;;;;;;17.82;41.53;97110.97;4191778;28;5859;-71
2022/04/30 12:48:52;;;;;;;;;;;;;;;18.03;41.82;97108.53;4194167;28;5778;-71
2022/04/30 12:50:54;;;;;;;;;;;;;;;18.18;41.21;97110.72;4180937;28;6418;-71
2022/04/30 12:52:56;;;;;;;;;;;;;;;18.06;40.15;97114.47;4194221;28;5677;-71
2022/04/30 12:54:57;;;;;;;;;;;;;;;18.14;40.76;97106.09;4193584;28;5862;-71
2022/04/30 12:56:59;;;;;;;;;;;;;;;17.94;42.42;97106.44;4193537;28;6420;-71
2022/04/30 12:59:01;;;;;;;;;;;;;;;18.01;42.35;97115.16;4212812;28;5774;-71
2022/04/30 13:01:02;;;;;;;;;;;;;;;18.00;43.17;97108.16;4229234;27;5721;-71
2022/04/30 13:03:06;;;;;;;;;;;;;;;18.08;42.61;97110.50;4203522;28;5650;-71
2022/04/30 13:05:12;;;;;;;;;;;;;;;18.16;42.23;97106.66;4218067;28;6806;-71
2022/04/30 13:07:14;;;;;;;;;;;;;;;18.25;41.30;97110.63;4218358;28;5770;-71
2022/04/30 13:13:56;;;;;;;;;;;;;;;18.19;46.03;97117.72;4218100;28;5893;-71
2022/04/30 13:16:01;;;;;;;;;;;;;;;17.74;45.79;97118.28;4217964;27;5770;-72
2022/04/30 13:18:03;;;;;;;;;;;;;;;17.80;45.99;97127.25;4215054;28;5765;-71
2022/04/30 13:20:05;;;;;;;;;;;;;;;17.86;45.87;97112.13;4215052;28;6143;-71
2022/04/30 13:22:07;;;;;;;;;;;;;;;17.72;46.17;97112.34;4214813;28;5762;-70
2022/04/30 13:24:09;;;;;;;;;;;;;;;17.75;45.56;97109.19;4224226;27;5749;-71
2022/04/30 13:26:11;;;;;;;;;;;;;;;17.71;45.16;97109.91;4218778;28;5778;-71
2022/04/30 13:28:12;;;;;;;;;;;;;;;17.64;44.48;97104.63;4228075;28;5741;-70
2022/04/30 13:30:21;;;;;;;;;;;;;;;17.51;44.87;97110.19;4225836;28;5749;-69
2022/04/30 13:32:22;;;;;;;;;;;;;;;17.38;45.23;97111.19;4229549;28;5792;-70
2022/04/30 13:34:24;;;;;;;;;;;;;;;17.09;44.70;97104.81;4213382;28;5815;-70
2022/04/30 13:36:26;;;;;;;;;;;;;;;17.05;44.55;97100.97;4222650;28;5745;-71
2022/04/30 13:38:28;;;;;;;;;;;;;;;17.18;44.39;97094.63;4225632;27;5738;-69
2022/04/30 13:40:29;;;;;;;;;;;;;;;17.12;44.73;97095.56;4222199;27;6793;-70
2022/04/30 13:42:31;;;;;;;;;;;;;;;17.28;44.60;97094.91;4235760;27;5746;-69
2022/04/30 13:44:37;;;;;;;;;;;;;;;17.40;44.49;97087.72;4224121;27;5707;-70
2022/04/30 13:46:39;;;;;;;;;;;;;;;17.41;44.73;97084.00;4222880;27;5858;-70
2022/04/30 13:48:52;;;;;;;;;;;;;;;17.57;44.15;97087.88;4222188;27;5736;-70
2022/04/30 13:50:53;;;;;;;;;;;;;;;17.75;43.52;97079.78;4231615;27;6065;-61
2022/04/30 13:52:55;;;;;;;;;;;;;;;17.83;42.83;97086.66;4228090;27;5782;-65
2022/04/30 13:54:56;;;;;;;;;;;;;;;17.86;42.91;97086.19;4225230;27;5749;-62
2022/04/30 13:56:58;;;;;;;;;;;;;;;17.83;42.05;97107.25;4226816;28;5831;-63
2022/04/30 13:59:00;;;;;;;;;;;;;;;17.69;41.78;97102.13;4226349;27;5720;-68
2022/04/30 14:01:03;;;;;;;;;;;;;;;17.62;42.24;97109.38;4218161;27;5749;-70
2022/04/30 14:03:05;;;;;;;;;;;;;;;17.45;41.32;97100.41;4230325;27;5761;-68
2022/04/30 14:05:08;;;;;;;;;;;;;;;17.16;41.53;97104.72;4243759;27;5827;-69
2022/04/30 14:07:10;;;;;;;;;;;;;;;17.02;41.97;97093.44;4228619;27;5869;-69
2022/04/30 14:09:11;;;;;;;;;;;;;;;17.15;42.26;97098.56;4234372;27;5739;-69
2022/04/30 14:11:13;;;;;;;;;;;;;;;17.28;42.31;97089.56;4233850;27;5724;-65
2022/04/30 14:15:35;;;;;;;;;;;;;;;17.02;41.22;97092.63;4222450;28;5758;-65
2022/04/30 14:19:57;;;;;;;;;;;;;;;17.11;41.85;97097.41;4225557;27;5949;-67
2022/04/30 14:21:59;;;;;;;;;;;;;;;17.06;41.07;97097.25;4226723;27;5852;-67
2022/04/30 14:24:02;;;;;;;;;;;;;;;17.11;41.92;97093.94;4225876;27;5769;-68
2022/04/30 14:26:26;;;;;;;;;;;;;;;17.18;42.12;97094.63;4229722;27;5845;-66
2022/04/30 14:28:27;;;;;;;;;;;;;;;17.18;41.97;97100.78;4230044;27;6476;-66
2022/04/30 14:30:29;;;;;;;;;;;;;;;17.19;41.79;97101.59;4218647;27;5682;-66
2022/04/30 14:32:31;;;;;;;;;;;;;;;17.09;42.75;97098.66;4224179;27;5753;-67
2022/04/30 14:34:33;;;;;;;;;;;;;;;17.03;43.23;97103.06;4216836;27;5782;-65
2022/04/30 14:36:35;;;;;;;;;;;;;;;16.88;43.90;97111.50;4219776;27;5125;-72
2022/04/30 14:38:37;;;;;;;;;;;;;;;16.82;44.23;97115.03;4231150;27;5745;-74
2022/04/30 14:40:39;;;;;;;;;;;;;;;16.73;44.10;97108.38;4228234;27;5784;-65
2022/04/30 14:42:41;;;;;;;;;;;;;;;16.56;42.73;97110.81;4219732;27;5773;-73
2022/04/30 14:44:43;;;;;;;;;;;;;;;16.45;43.53;97116.06;4225644;28;5726;-73
2022/04/30 14:46:44;;;;;;;;;;;;;;;16.33;44.20;97113.34;4235740;27;5836;-74
2022/04/30 14:48:46;;;;;;;;;;;;;;;16.18;43.48;97108.34;4238018;27;5988;-74
2022/04/30 14:50:48;;;;;;;;;;;;;;;16.34;42.56;97114.16;4223710;27;5788;-74
2022/04/30 14:52:49;;;;;;;;;;;;;;;16.40;41.59;97119.41;4202613;28;5734;-74
2022/04/30 14:54:53;;;;;;;;;;;;;;;16.35;41.85;97121.09;4236626;27;5772;-74
2022/04/30 14:56:55;;;;;;;;;;;;;;;16.17;39.47;97120.03;4231185;27;5739;-74
2022/04/30 14:58:57;;;;;;;;;;;;;;;16.13;41.12;97113.53;4234180;27;5716;-74
2022/04/30 15:00:59;;;;;;;;;;;;;;;16.01;39.26;97107.28;4224608;27;5113;-73
2022/04/30 15:03:00;;;;;;;;;;;;;;;15.92;39.79;97093.41;4225318;27;5722;-73
2022/04/30 15:05:03;;;;;;;;;;;;;;;15.58;39.54;97096.56;4223704;27;6702;-74
2022/04/30 15:07:04;;;;;;;;;;;;;;;15.78;40.11;97099.09;4239114;27;5693;-73
2022/04/30 15:09:06;;;;;;;;;;;;;;;15.65;39.56;97105.34;4227886;27;5773;-74
2022/04/30 15:11:08;;;;;;;;;;;;;;;15.80;40.15;97105.00;4233286;27;5764;-74
2022/04/30 15:13:09;;;;;;;;;;;;;;;15.93;40.32;97110.22;4222020;27;5724;-74
2022/04/30 15:15:11;;;;;;;;;;;;;;;15.80;41.34;97105.00;4239033;27;5739;-74
2022/04/30 15:17:13;;;;;;;;;;;;;;;15.59;43.30;97101.66;4222630;27;5712;-76
2022/04/30 15:19:15;;;;;;;;;;;;;;;15.41;44.79;97107.75;4229309;27;5733;-64
2022/04/30 15:21:16;;;;;;;;;;;;;;;15.51;44.46;97109.09;4229987;27;5695;-64
2022/04/30 15:23:19;;;;;;;;;;;;;;;15.32;46.48;97102.91;4224540;27;5816;-63
2022/04/30 15:25:21;;;;;;;;;;;;;;;15.58;46.80;97116.03;4230094;28;5715;-64
2022/04/30 15:27:22;;;;;;;;;;;;;;;15.63;49.33;97110.91;4220139;27;5814;-64
2022/04/30 15:29:28;;;;;;;;;;;;;;;15.57;51.12;97108.25;4239012;27;5735;-69
2022/04/30 15:31:30;;;;;;;;;;;;;;;15.27;56.71;97124.03;4243720;27;5751;-70
2022/04/30 15:33:32;;;;;;;;;;;;;;;15.06;60.67;97123.34;4227403;27;5767;-65
2022/04/30 15:35:34;;;;;;;;;;;;;;;15.02;58.02;97132.78;4227911;27;5744;-65
2022/04/30 15:37:35;;;;;;;;;;;;;;;15.04;58.59;97130.72;4226093;27;5754;-72
2022/04/30 15:39:37;;;;;;;;;;;;;;;15.06;50.96;97143.81;4228328;27;5745;-71
2022/04/30 15:41:39;;;;;;;;;;;;;;;15.01;53.71;97146.28;4236203;27;5736;-65
2022/04/30 15:43:41;;;;;;;;;;;;;;;15.07;57.59;97161.44;4229723;27;5769;-65
2022/04/30 15:45:44;;;;;;;;;;;;;;;15.31;55.71;97178.53;4225031;27;5774;-62
2022/04/30 15:52:39;;;;;;;;;;;;;;;15.38;57.04;97198.75;4225917;28;5764;-70
2022/04/30 15:54:41;;;;;;;;;;;;;;;15.33;58.22;97216.41;4215885;28;5748;-69
2022/04/30 15:56:43;;;;;;;;;;;;;;;15.55;57.25;97214.25;4219747;28;5760;-67
2022/04/30 15:58:49;;;;;;;;;;;;;;;15.40;57.27;97211.84;4217750;28;5766;-71
2022/04/30 16:00:51;;;;;;;;;;;;;;;13.97;61.16;97208.31;4218476;28;5896;-67
2022/04/30 16:02:53;;;;;;;;;;;;;;;13.62;64.24;97210.31;4217016;28;5877;-71
2022/04/30 16:04:55;;;;;;;;;;;;;;;13.74;63.91;97198.06;4219818;27;6479;-64
2022/04/30 16:06:56;;;;;;;;;;;;;;;13.97;64.84;97197.69;4222518;28;5877;-69
2022/04/30 16:08:58;;;;;;;;;;;;;;;13.99;65.01;97206.25;4219746;28;5808;-69
2022/04/30 16:11:00;;;;;;;;;;;;;;;13.29;67.70;97200.44;4216031;28;5726;-69
2022/04/30 16:13:02;;;;;;;;;;;;;;;13.15;68.00;97201.41;4217375;28;5790;-69
2022/04/30 16:15:06;;;;;;;;;;;;;;;12.78;72.41;97208.78;4217822;28;5769;-68
2022/04/30 16:17:07;;;;;;;;;;;;;;;12.95;70.92;97211.13;4218180;28;5971;-65
2022/04/30 16:19:09;;;;;;;;;;;;;;;12.95;70.55;97213.75;4223480;28;5649;-67
2022/04/30 16:21:12;;;;;;;;;;;;;;;13.26;69.86;97219.44;4220561;28;5745;-67
2022/04/30 16:23:13;;;;;;;;;;;;;;;12.83;70.98;97216.16;4219192;28;5855;-66
2022/04/30 16:25:16;;;;;;;;;;;;;;;12.98;70.29;97222.13;4217767;28;5835;-64
2022/04/30 16:27:18;;;;;;;;;;;;;;;13.16;68.14;97226.91;4220558;28;5804;-66
2022/04/30 16:29:20;;;;;;;;;;;;;;;13.15;69.31;97233.25;4221814;28;5757;-63
2022/04/30 16:31:22;;;;;;;;;;;;;;;12.78;70.04;97234.50;4217449;28;5757;-69
2022/04/30 16:33:24;;;;;;;;;;;;;;;12.86;69.11;97233.50;4215590;28;5806;-66
2022/04/30 16:35:27;;;;;;;;;;;;;;;13.01;68.60;97239.50;4217160;28;5872;-69
2022/04/30 16:37:28;;;;;;;;;;;;;;;12.59;69.73;97241.34;4218754;28;5762;-64
2022/04/30 16:39:30;;;;;;;;;;;;;;;12.81;68.64;97245.53;4222992;27;5880;-64
2022/04/30 16:41:32;;;;;;;;;;;;;;;12.87;68.10;97254.53;4229259;27;5783;-64
2022/04/30 16:43:35;;;;;;;;;;;;;;;12.81;69.73;97253.50;4235471;27;5757;-64
2022/04/30 16:45:37;;;;;;;;;;;;;;;12.90;68.95;97262.09;4225896;27;5766;-62
2022/04/30 16:47:40;;;;;;;;;;;;;;;13.18;67.69;97264.69;4231474;27;5880;-63
2022/04/30 16:49:42;;;;;;;;;;;;;;;13.48;66.54;97262.59;4224885;27;5810;-63
2022/04/30 16:54:04;;;;;;;;;;;;;;;13.25;66.56;97267.41;4219253;28;5104;-63
2022/04/30 16:58:26;;;;;;;;;;;;;;;13.75;65.93;97260.81;4230256;27;5769;-70
2022/04/30 17:00:33;;;;;;;;;;;;;;;13.71;67.12;97259.59;4220273;28;5761;-91
2022/04/30 17:02:34;;;;;;;;;;;;;;;13.87;65.50;97269.84;4223888;27;6848;-71
2022/04/30 17:04:37;;;;;;;;;;;;;;;13.84;65.63;97272.09;4224942;28;5711;-70
2022/04/30 17:06:39;;;;;;;;;;;;;;;13.87;66.02;97267.19;4220560;27;5836;-70
2022/04/30 17:08:41;;;;;;;;;;;;;;;13.89;65.84;97274.94;4221323;28;5825;-70
2022/04/30 17:10:43;;;;;;;;;;;;;;;13.91;66.27;97259.59;4218820;27;5774;-70
2022/04/30 17:12:52;;;;;;;;;;;;;;;13.95;66.21;97258.19;4224024;27;6471;-70
2022/04/30 17:14:53;;;;;;;;;;;;;;;14.03;67.03;97254.50;4226746;27;5399;-70
2022/04/30 17:16:56;;;;;;;;;;;;;;;13.76;68.85;97251.81;4219100;28;5774;-70
2022/04/30 17:18:58;;;;;;;;;;;;;;;13.89;66.98;97256.34;4220292;27;5752;-70
2022/04/30 17:21:00;;;;;;;;;;;;;;;14.03;65.94;97260.63;4223059;27;5763;-70
2022/04/30 17:23:03;;;;;;;;;;;;;;;14.14;66.99;97261.88;4236731;27;5745;-71
2022/04/30 17:25:05;;;;;;;;;;;;;;;14.20;67.36;97261.88;4224970;28;5755;-71
2022/04/30 17:27:07;;;;;;;;;;;;;;;14.26;67.72;97270.88;4218466;28;5883;-71
2022/04/30 17:29:08;;;;;;;;;;;;;;;14.30;67.49;97282.75;4221618;27;6357;-71
2022/04/30 17:38:11;;;;;;;;;;;;;;;13.35;69.86;97294.41;4215283;28;5766;-63
2022/04/30 17:40:14;;;;;;;;;;;;;;;13.35;70.51;97302.38;4214810;28;5904;-63
2022/04/30 17:42:15;;;;;;;;;;;;;;;13.14;69.16;97308.59;4225069;27;6445;-74
2022/04/30 17:44:18;;;;;;;;;;;;;;;13.01;70.77;97311.16;4218662;27;5712;-74
2022/04/30 17:46:19;;;;;;;;;;;;;;;12.27;75.10;97305.53;4230673;27;5808;-74
2022/04/30 17:48:27;;;;;;;;;;;;;;;12.28;75.36;97310.66;4223471;27;5086;-73
2022/04/30 17:50:29;;;;;;;;;;;;;;;12.08;76.65;97313.13;4229270;27;6361;-69
2022/04/30 17:52:31;;;;;;;;;;;;;;;11.82;78.49;97304.94;4223343;27;5764;-68
2022/04/30 17:54:33;;;;;;;;;;;;;;;11.75;80.20;97301.34;4220381;28;5784;-67
2022/04/30 17:56:35;;;;;;;;;;;;;;;11.78;79.73;97296.50;4218192;27;5658;-63
2022/04/30 17:58:37;;;;;;;;;;;;;;;11.84;78.90;97298.41;4218996;27;5720;-66
2022/04/30 18:00:38;;;;;;;;;;;;;;;11.84;77.14;97290.47;4221410;28;7200;-64
2022/04/30 18:02:41;;;;;;;;;;;;;;;11.95;79.65;97299.75;4219821;28;5763;-61
2022/04/30 18:04:43;;;;;;;;;;;;;;;11.99;78.85;97298.34;4225618;28;5743;-61
2022/04/30 18:06:46;;;;;;;;;;;;;;;11.96;79.62;97293.44;4222627;28;5781;-61
2022/04/30 18:08:47;;;;;;;;;;;;;;;11.95;79.46;97297.09;4221846;27;5852;-63
2022/04/30 18:10:49;;;;;;;;;;;;;;;12.01;81.05;97293.72;4218984;28;5901;-63
2022/04/30 18:12:51;;;;;;;;;;;;;;;12.11;82.73;97291.53;4219334;28;5881;-61
2022/04/30 18:14:53;;;;;;;;;;;;;;;11.99;81.92;97293.06;4220949;28;5770;-62
2022/04/30 18:16:57;;;;;;;;;;;;;;;11.96;82.92;97301.38;4220611;28;5793;-62
2022/04/30 18:18:59;;;;;;;;;;;;;;;12.04;80.96;97292.50;4217854;28;5743;-64
2022/04/30 18:21:01;;;;;;;;;;;;;;;11.75;83.83;97296.03;4221251;28;5671;-63
2022/04/30 18:23:04;;;;;;;;;;;;;;;11.86;83.14;97299.03;4218902;28;5708;-69
2022/04/30 18:25:06;;;;;;;;;;;;;;;11.75;82.97;97298.69;4223073;28;5874;-64
2022/04/30 18:27:08;;;;;;;;;;;;;;;11.72;83.79;97307.84;4219675;27;5828;-64
2022/04/30 18:29:10;;;;;;;;;;;;;;;11.55;84.04;97301.13;4215791;28;5668;-64
2022/04/30 18:31:11;;;;;;;;;;;;;;;11.27;85.78;97304.47;4216430;28;6599;-63
2022/04/30 18:33:13;;;;;;;;;;;;;;;11.52;83.72;97302.31;4218185;28;5769;-63
2022/04/30 18:35:16;;;;;;;;;;;;;;;11.56;84.05;97303.59;4221235;27;5776;-62
2022/04/30 18:37:18;;;;;;;;;;;;;;;11.90;82.52;97310.09;4219595;28;5885;-63
2022/04/30 18:39:19;;;;;;;;;;;;;;;11.96;82.46;97314.63;4215213;28;6335;-64
2022/04/30 18:41:21;;;;;;;;;;;;;;;12.11;81.55;97314.56;4221481;27;5892;-62
2022/04/30 18:43:23;;;;;;;;;;;;;;;12.13;80.80;97305.44;4216994;28;5794;-64
2022/04/30 18:45:24;;;;;;;;;;;;;;;12.13;80.17;97309.91;4220929;28;5730;-63
2022/04/30 18:47:26;;;;;;;;;;;;;;;12.14;80.02;97320.31;4221462;28;5655;-63
2022/04/30 18:49:28;;;;;;;;;;;;;;;12.30;79.77;97326.38;4218810;27;5671;-68
2022/04/30 18:51:29;;;;;;;;;;;;;;;12.24;79.65;97334.09;4216607;28;5794;-63
2022/04/30 18:53:31;;;;;;;;;;;;;;;12.39;77.92;97331.34;4220192;28;5676;-62
2022/04/30 19:02:36;;;;;;;;;;;;;;;12.87;77.56;97349.25;4218435;28;5793;-63
2022/04/30 19:04:38;;;;;;;;;;;;;;;12.88;77.79;97353.53;4220761;28;5650;-67
2022/04/30 19:06:41;;;;;;;;;;;;;;;12.85;76.97;97354.75;4220560;28;5760;-62
2022/04/30 19:08:43;;;;;;;;;;;;;;;12.75;79.55;97354.28;4217868;28;5791;-63
2022/04/30 19:10:46;;;;;;;;;;;;;;;12.74;77.58;97340.19;4218601;28;5878;-62
2022/04/30 19:12:51;;;;;;;;;;;;;;;12.88;76.85;97349.06;4219271;28;5881;-62
2022/04/30 19:14:52;;;;;;;;;;;;;;;12.92;77.76;97344.19;4218788;28;5093;-62
2022/04/30 19:16:57;;;;;;;;;;;;;;;12.85;77.25;97340.66;4217669;28;5692;-62
2022/04/30 19:19:00;;;;;;;;;;;;;;;12.85;76.87;97335.34;4218271;28;5680;-61
2022/04/30 19:21:01;;;;;;;;;;;;;;;12.95;76.04;97331.34;4217265;28;5687;-61
2022/04/30 19:23:05;;;;;;;;;;;;;;;13.03;75.52;97333.84;4218570;28;5813;-62
2022/04/30 19:25:07;;;;;;;;;;;;;;;13.08;75.20;97336.72;4216582;28;5682;-63
2022/04/30 19:27:09;;;;;;;;;;;;;;;13.11;74.95;97333.69;4216802;28;5753;-63